createdAt,value
2023-09-20T00:04:43.485Z,10.71
2023-09-20T00:09:51.607Z,10.66
2023-09-20T00:15:01.309Z,10.56
2023-09-20T00:20:13.956Z,10.50
2023-09-20T00:25:22.052Z,10.55
2023-09-20T00:30:30.018Z,10.57
2023-09-20T00:35:41.599Z,10.51
2023-09-20T00:40:49.647Z,10.38
2023-09-20T00:45:59.627Z,10.28
2023-09-20T00:51:08.160Z,10.28
2023-09-20T00:56:16.119Z,10.34
2023-09-20T01:01:27.843Z,10.38
2023-09-20T01:06:37.843Z,10.45
2023-09-20T01:11:47.354Z,10.54
2023-09-20T01:16:55.806Z,10.60
2023-09-20T01:22:03.899Z,10.61
2023-09-20T01:27:11.962Z,10.74
2023-09-20T01:32:20.016Z,10.93
2023-09-20T01:37:27.976Z,10.98
2023-09-20T01:42:35.880Z,10.97
2023-09-20T01:47:46.182Z,11.05
2023-09-20T01:52:55.253Z,11.14
2023-09-20T01:58:07.117Z,11.26
2023-09-20T02:03:18.685Z,11.22
2023-09-20T02:08:27.817Z,11.25
2023-09-20T02:13:35.942Z,11.32
2023-09-20T02:18:45.593Z,11.33
2023-09-20T02:23:57.606Z,11.30
2023-09-20T02:29:05.548Z,11.32
2023-09-20T02:34:14.424Z,11.43
2023-09-20T02:39:22.555Z,11.38
2023-09-20T02:44:31.871Z,11.32
2023-09-20T02:49:41.466Z,11.36
2023-09-20T02:54:49.448Z,11.41
2023-09-20T02:59:59.317Z,11.37
2023-09-20T03:05:08.042Z,11.29
2023-09-20T03:10:17.484Z,11.25
2023-09-20T03:15:28.387Z,11.27
2023-09-20T03:20:39.723Z,11.25
2023-09-20T03:25:48.428Z,11.10
2023-09-20T03:30:57.628Z,11.09
2023-09-20T03:36:16.493Z,11.09
2023-09-20T03:41:25.727Z,11.06
2023-09-20T03:46:34.314Z,11.01
2023-09-20T03:51:42.265Z,11.05
2023-09-20T03:56:50.168Z,11.17
2023-09-20T04:01:58.148Z,11.18
2023-09-20T04:07:06.576Z,11.13
2023-09-20T04:12:16.429Z,11.08
2023-09-20T04:17:27.286Z,11.15
2023-09-20T04:22:38.389Z,11.08
2023-09-20T04:27:47.959Z,11.00
2023-09-20T04:32:56.672Z,11.00
2023-09-20T04:38:05.022Z,11.01
2023-09-20T04:43:16.218Z,11.04
2023-09-20T04:48:24.281Z,11.05
2023-09-20T04:53:34.512Z,11.13
2023-09-20T04:58:42.819Z,11.20
2023-09-20T05:03:52.296Z,11.21
2023-09-20T05:09:00.370Z,11.28
2023-09-20T05:14:08.578Z,11.46
2023-09-20T05:19:17.902Z,11.74
2023-09-20T05:24:27.048Z,11.94
2023-09-20T05:29:35.343Z,12.09
2023-09-20T05:34:44.020Z,12.32
2023-09-20T05:39:52.858Z,12.52
2023-09-20T05:45:00.793Z,12.70
2023-09-20T05:50:11.705Z,12.89
2023-09-20T05:55:20.237Z,13.10
2023-09-20T06:00:28.161Z,13.19
2023-09-20T06:05:38.650Z,13.37
2023-09-20T06:10:47.462Z,13.55
2023-09-20T06:15:55.361Z,13.78
2023-09-20T06:21:05.657Z,14.14
2023-09-20T06:26:14.026Z,14.51
2023-09-20T06:31:22.186Z,14.84
2023-09-20T06:36:30.592Z,15.12
2023-09-20T06:41:43.397Z,15.43
2023-09-20T06:46:51.534Z,15.70
2023-09-20T06:52:02.965Z,15.93
2023-09-20T06:57:18.383Z,16.22
2023-09-20T07:02:28.265Z,16.53
2023-09-20T07:07:36.418Z,16.91
2023-09-20T07:12:44.534Z,17.40
2023-09-20T07:18:00.314Z,18.07
2023-09-20T07:23:10.250Z,18.44
2023-09-20T07:28:18.668Z,18.64
2023-09-20T07:33:32.319Z,18.98
2023-09-20T07:38:40.478Z,19.25
2023-09-20T07:43:48.945Z,19.37
2023-09-20T07:48:57.309Z,19.84
2023-09-20T07:54:07.466Z,19.94
2023-09-20T07:59:15.482Z,19.73
2023-09-20T08:04:24.619Z,19.61
2023-09-20T08:09:33.247Z,19.51
2023-09-20T08:14:41.205Z,19.40
2023-09-20T08:19:50.422Z,19.83
2023-09-20T08:25:16.282Z,20.56
2023-09-20T08:30:42.247Z,20.71
2023-09-20T08:36:07.761Z,20.59
2023-09-20T08:41:33.536Z,20.56
2023-09-20T08:47:00.986Z,20.54
2023-09-20T08:52:31.998Z,20.78
2023-09-20T08:57:57.724Z,20.75
2023-09-20T09:03:07.832Z,20.88
2023-09-20T09:08:18.455Z,21.02
2023-09-20T09:13:26.457Z,20.87
2023-09-20T09:18:34.875Z,20.80
2023-09-20T09:23:47.268Z,21.14
2023-09-20T09:28:55.906Z,21.32
2023-09-20T09:34:08.833Z,21.55
2023-09-20T09:39:32.187Z,21.41
2023-09-20T09:44:52.745Z,21.73
2023-09-20T09:50:02.758Z,22.08
2023-09-20T09:55:12.355Z,22.70
2023-09-20T10:00:22.011Z,22.91
2023-09-20T10:05:31.250Z,22.90
2023-09-20T10:10:39.244Z,23.44
2023-09-20T10:15:48.005Z,24.20
2023-09-20T10:21:12.082Z,24.46
2023-09-20T10:26:20.557Z,24.28
2023-09-20T10:31:32.954Z,24.28
2023-09-20T10:36:53.801Z,24.26
2023-09-20T10:42:14.734Z,24.45
2023-09-20T10:47:24.813Z,24.62
2023-09-20T10:52:58.695Z,24.57
2023-09-20T10:58:08.497Z,24.90
2023-09-20T11:03:20.137Z,24.92
2023-09-20T11:08:29.121Z,25.20
2023-09-20T11:13:37.087Z,25.25
2023-09-20T11:18:45.057Z,25.16
2023-09-20T11:23:53.256Z,24.81
2023-09-20T11:29:02.149Z,25.09
2023-09-20T11:34:10.213Z,24.96
2023-09-20T11:39:19.018Z,25.00
2023-09-20T11:44:28.799Z,24.79
2023-09-20T11:49:39.232Z,24.13
2023-09-20T11:54:47.236Z,23.65
2023-09-20T11:59:56.948Z,24.09
2023-09-20T12:05:05.431Z,24.05
2023-09-20T12:10:13.675Z,24.24
2023-09-20T12:15:24.210Z,24.17
2023-09-20T12:20:32.806Z,23.55
2023-09-20T12:25:42.056Z,23.17
2023-09-20T12:30:50.381Z,23.37
2023-09-20T12:35:58.650Z,23.44
2023-09-20T12:41:06.883Z,23.45
2023-09-20T12:46:15.000Z,23.49
2023-09-20T12:51:23.024Z,23.44
2023-09-20T12:56:31.674Z,23.79
2023-09-20T13:01:40.203Z,24.38
2023-09-20T13:06:48.375Z,24.42
2023-09-20T13:11:56.367Z,24.38
2023-09-20T13:17:04.379Z,24.40
2023-09-20T13:22:12.893Z,24.34
2023-09-20T13:27:20.840Z,24.09
2023-09-20T13:32:28.806Z,24.12
2023-09-20T13:37:37.083Z,24.04
2023-09-20T13:42:45.998Z,23.91
2023-09-20T13:47:55.716Z,23.88
2023-09-20T13:53:03.970Z,24.05
2023-09-20T13:58:13.073Z,24.30
2023-09-20T14:03:21.463Z,24.66
2023-09-20T14:08:31.309Z,24.95
2023-09-20T14:13:41.024Z,24.85
2023-09-20T14:18:51.052Z,24.58
2023-09-20T14:24:00.710Z,24.08
2023-09-20T14:29:11.364Z,23.86
2023-09-20T14:34:21.009Z,23.81
2023-09-20T14:39:30.559Z,23.68
2023-09-20T14:44:39.160Z,23.58
2023-09-20T14:49:47.318Z,23.69
2023-09-20T14:54:55.631Z,23.59
2023-09-20T15:00:07.203Z,23.44
2023-09-20T15:05:16.168Z,23.38
2023-09-20T15:10:26.533Z,23.27
2023-09-20T15:15:35.874Z,23.06
2023-09-20T15:20:45.476Z,22.89
2023-09-20T15:25:53.373Z,22.67
2023-09-20T15:31:01.284Z,22.46
2023-09-20T15:36:09.723Z,22.28
2023-09-20T15:41:18.091Z,22.05
2023-09-20T15:46:26.194Z,21.84
2023-09-20T15:51:34.170Z,21.64
2023-09-20T15:56:42.284Z,21.35
2023-09-20T16:01:50.274Z,21.00
2023-09-20T16:06:58.231Z,20.69
2023-09-20T16:12:06.642Z,20.34
2023-09-20T16:17:15.178Z,20.01
2023-09-20T16:22:24.557Z,19.73
2023-09-20T16:27:32.594Z,19.53
2023-09-20T16:32:44.307Z,19.45
2023-09-20T16:37:53.403Z,19.36
2023-09-20T16:43:01.562Z,19.14
2023-09-20T16:48:10.948Z,18.98
2023-09-20T16:53:19.068Z,18.73
2023-09-20T16:58:27.127Z,18.50
2023-09-20T17:03:35.318Z,18.36
2023-09-20T17:08:43.502Z,18.22
2023-09-20T17:13:52.715Z,18.00
2023-09-20T17:19:01.072Z,17.80
2023-09-20T17:24:11.000Z,17.74
2023-09-20T17:29:20.067Z,17.65
2023-09-20T17:34:28.313Z,17.41
2023-09-20T17:39:38.302Z,17.13
2023-09-20T17:44:46.437Z,17.00
2023-09-20T17:49:54.567Z,17.03
2023-09-20T17:55:02.542Z,16.97
2023-09-20T18:00:14.815Z,16.72
2023-09-20T18:05:23.273Z,16.58
2023-09-20T18:10:31.270Z,16.56
2023-09-20T18:15:40.161Z,16.47
2023-09-20T18:20:48.577Z,16.27
2023-09-20T18:25:57.348Z,16.16
2023-09-20T18:31:17.032Z,16.03
2023-09-20T18:36:25.287Z,15.98
2023-09-20T18:41:34.205Z,15.86
2023-09-20T18:46:43.080Z,15.65
2023-09-20T18:51:52.546Z,15.61
2023-09-20T18:57:01.141Z,15.69
2023-09-20T19:02:09.861Z,15.39
2023-09-20T19:07:18.509Z,15.32
2023-09-20T19:12:27.103Z,15.31
2023-09-20T19:17:38.028Z,15.39
2023-09-20T19:22:47.163Z,15.29
2023-09-20T19:27:55.690Z,14.96
2023-09-20T19:33:05.340Z,14.88
2023-09-20T19:38:13.898Z,14.89
2023-09-20T19:43:22.958Z,14.83
2023-09-20T19:48:31.742Z,14.69
2023-09-20T19:53:41.449Z,14.71
2023-09-20T19:58:51.367Z,14.65
2023-09-20T20:04:00.078Z,14.55
2023-09-20T20:09:09.019Z,14.45
2023-09-20T20:14:17.290Z,14.40
2023-09-20T20:19:25.422Z,14.43
2023-09-20T20:24:35.352Z,14.24
2023-09-20T20:29:43.474Z,14.19
2023-09-20T20:34:51.428Z,14.11
2023-09-20T20:39:59.474Z,14.15
2023-09-20T20:45:11.189Z,14.12
2023-09-20T20:50:26.931Z,13.88
2023-09-20T20:55:34.801Z,13.84
2023-09-20T21:00:50.866Z,13.87
2023-09-20T21:06:00.378Z,13.75
2023-09-20T21:11:17.482Z,13.60
2023-09-20T21:16:25.446Z,13.57
2023-09-20T21:21:33.458Z,13.45
2023-09-20T21:26:41.449Z,13.32
2023-09-20T21:31:49.660Z,13.43
2023-09-20T21:36:57.732Z,13.39
2023-09-20T21:42:05.815Z,13.24
2023-09-20T21:47:13.828Z,13.06
2023-09-20T21:52:21.772Z,13.11
2023-09-20T21:57:29.962Z,13.18
2023-09-20T22:02:41.147Z,13.10
2023-09-20T22:07:50.750Z,13.03
2023-09-20T22:13:00.166Z,13.07
2023-09-20T22:18:15.819Z,12.82
2023-09-20T22:23:24.180Z,12.68
2023-09-20T22:28:32.370Z,12.74
2023-09-20T22:33:40.661Z,12.75
2023-09-20T22:38:50.475Z,12.62
2023-09-20T22:44:01.400Z,12.63
2023-09-20T22:49:09.760Z,12.54
2023-09-20T22:54:19.071Z,12.51
2023-09-20T22:59:29.577Z,12.58
2023-09-20T23:04:37.634Z,12.50
2023-09-20T23:09:45.626Z,12.44
2023-09-20T23:14:55.128Z,12.44
2023-09-20T23:20:23.864Z,12.31
2023-09-20T23:25:34.550Z,12.24
2023-09-20T23:30:43.671Z,12.29
2023-09-20T23:35:54.313Z,12.37
2023-09-20T23:41:15.467Z,12.32
2023-09-20T23:46:28.289Z,12.20
2023-09-20T23:51:37.880Z,12.21
2023-09-20T23:56:47.741Z,12.15
